Time;durP1;ratioP1;P1;durP2;ratioP2;P2;SDS_P1;SDS_P2;PMS_P1;PMS_P2;Temp;Humidity;BMP_temperature;BMP_pressure;BME280_temperature;BME280_humidity;BME280_pressure;Samples;Min_cycle;Max_cycle;Signal;HPM_P1;HPM_P2
2022/08/01 00:01:37;;;;;;;;;1.00;1.00;;;;;23.19;55.80;101019.03;5065398;28;46303;-78
2022/08/01 00:04:03;;;;;;;;;2.00;2.00;;;;;23.12;55.89;101015.03;5069623;27;45504;-75
2022/08/01 00:06:29;;;;;;;;;1.25;1.25;;;;;23.15;56.07;101017.50;5054944;28;45322;-77
2022/08/01 00:08:54;;;;;;;;;2.25;1.75;;;;;23.16;56.04;101021.94;5074398;28;45625;-77
2022/08/01 00:11:20;;;;;;;;;1.00;1.00;;;;;23.15;56.35;101022.91;5073036;28;46280;-77
2022/08/01 00:13:45;;;;;;;;;1.00;1.00;;;;;23.06;56.34;101007.31;5071069;28;45468;-77
2022/08/01 00:16:10;;;;;;;;;1.00;1.00;;;;;23.09;56.08;101023.31;5059368;28;45473;-77
2022/08/01 00:18:36;;;;;;;;;1.00;1.00;;;;;23.06;56.13;101020.78;5073734;27;45527;-77
2022/08/01 00:21:03;;;;;;;;;1.00;1.00;;;;;23.07;56.20;101020.69;5059026;28;46097;-78
2022/08/01 00:23:28;;;;;;;;;1.50;1.50;;;;;23.05;56.07;101017.22;5055167;28;45528;-77
2022/08/01 00:25:53;;;;;;;;;0.00;0.00;;;;;23.03;56.71;101008.41;5060244;28;45686;-77
2022/08/01 00:28:19;;;;;;;;;2.00;1.00;;;;;23.02;56.52;101011.19;5073900;28;44943;-78
2022/08/01 00:30:44;;;;;;;;;1.00;0.00;;;;;22.98;56.38;101009.66;5062536;28;46555;-77
2022/08/01 00:33:09;;;;;;;;;1.00;1.00;;;;;22.93;56.24;101003.69;5057187;28;45508;-78
2022/08/01 00:35:35;;;;;;;;;1.00;1.00;;;;;22.93;56.40;101006.38;5057882;28;45379;-76
2022/08/01 00:38:00;;;;;;;;;1.00;1.00;;;;;22.94;56.50;101000.03;5058117;28;45413;-78
2022/08/01 00:40:26;;;;;;;;;1.50;1.50;;;;;22.85;56.87;100977.25;5077204;27;45346;-77
2022/08/01 00:42:54;;;;;;;;;1.00;1.00;;;;;22.86;56.90;100989.75;5077680;28;45433;-75
2022/08/01 00:45:20;;;;;;;;;1.00;1.00;;;;;22.68;57.10;100964.88;5059175;28;45413;-77
2022/08/01 00:47:45;;;;;;;;;1.00;1.00;;;;;22.82;56.77;100997.19;5067790;28;45427;-75
2022/08/01 00:50:11;;;;;;;;;1.00;1.00;;;;;22.81;56.58;100990.06;5057165;28;46400;-75
2022/08/01 00:52:38;;;;;;;;;0.75;0.75;;;;;22.56;57.38;100955.75;5057107;28;45345;-76
2022/08/01 00:55:04;;;;;;;;;1.00;1.00;;;;;22.78;57.26;100997.50;5056887;28;45477;-74
2022/08/01 00:57:29;;;;;;;;;0.00;0.00;;;;;22.68;57.34;100975.66;5058486;28;45475;-74
2022/08/01 00:59:55;;;;;;;;;0.00;0.00;;;;;22.78;57.38;100992.94;5058519;28;46306;-75
2022/08/01 01:02:21;;;;;;;;;1.00;1.00;;;;;22.76;57.35;100989.50;5056869;28;45642;-75
2022/08/01 01:04:46;;;;;;;;;0.00;0.00;;;;;22.79;57.11;100993.81;5057016;28;45735;-74
2022/08/01 01:07:49;;;;;;;;;0.25;0.25;;;;;22.78;57.37;100992.94;5056106;28;45407;-75
2022/08/01 01:10:27;;;;;;;;;0.00;0.00;;;;;22.74;57.11;100990.56;5074774;28;46160;-75
2022/08/01 01:13:03;;;;;;;;;0.75;0.75;;;;;22.70;57.06;100990.75;5076889;27;45500;-76
2022/08/01 01:15:44;;;;;;;;;1.75;1.00;;;;;22.70;57.13;100987.22;5063168;28;45385;-76
2022/08/01 01:18:12;;;;;;;;;0.50;0.50;;;;;22.67;57.39;100988.25;5057095;28;46192;-74
2022/08/01 01:20:42;;;;;;;;;0.00;0.00;;;;;22.66;57.41;100988.38;5056702;28;46362;-75
2022/08/01 01:23:29;;;;;;;;;1.00;0.00;;;;;22.66;57.64;100991.06;5056740;28;45460;-76
2022/08/01 01:26:12;;;;;;;;;1.00;1.00;;;;;22.64;57.58;100983.06;5055775;28;45500;-75
2022/08/01 01:29:01;;;;;;;;;0.00;0.00;;;;;22.65;57.51;100982.13;5057145;28;45446;-75
2022/08/01 01:31:29;;;;;;;;;0.00;0.00;;;;;22.64;57.47;100987.59;5056792;28;45463;-75
2022/08/01 01:33:57;;;;;;;;;0.00;0.00;;;;;22.60;57.48;100988.75;5056413;28;45300;-76
2022/08/01 01:36:26;;;;;;;;;0.00;0.00;;;;;22.57;57.70;100988.97;5054766;28;45525;-75
2022/08/01 01:38:52;;;;;;;;;0.00;0.00;;;;;22.61;57.63;100990.47;5056352;28;45571;-76
2022/08/01 01:41:19;;;;;;;;;0.25;0.25;;;;;22.60;57.49;100989.63;5056496;28;45413;-75
2022/08/01 01:43:46;;;;;;;;;0.00;0.00;;;;;22.61;57.94;100990.47;5056121;28;45518;-75
2022/08/01 01:46:15;;;;;;;;;2.50;0.00;;;;;22.59;57.61;100981.63;5056129;28;45446;-75
2022/08/01 01:48:44;;;;;;;;;0.25;0.25;;;;;22.56;57.69;100980.00;5070171;28;45457;-75
2022/08/01 01:51:12;;;;;;;;;2.00;2.00;;;;;22.59;57.57;100981.63;5076143;27;45469;-75
2022/08/01 01:53:40;;;;;;;;;1.75;0.25;;;;;22.54;58.18;100974.69;5076251;28;45497;-75
2022/08/01 01:56:06;;;;;;;;;1.00;1.00;;;;;22.59;57.85;100976.25;5055564;28;45537;-75
2022/08/01 01:58:34;;;;;;;;;0.25;0.25;;;;;22.62;58.27;100976.03;5069140;28;45590;-75
2022/08/01 02:01:02;;;;;;;;;1.00;1.00;;;;;22.57;57.78;100972.78;5068783;27;46268;-77
2022/08/01 02:03:29;;;;;;;;;0.25;0.25;;;;;22.62;57.53;100978.75;5066515;28;45597;-76
2022/08/01 02:05:56;;;;;;;;;0.50;0.50;;;;;22.61;57.68;100968.91;5055402;28;46200;-76
2022/08/01 02:08:24;;;;;;;;;0.75;0.75;;;;;22.61;57.55;100974.31;5067223;28;45589;-77
2022/08/01 02:13:58;;;;;;;;;1.00;1.00;;;;;22.60;57.91;100977.97;5050010;28;45348;-74
2022/08/01 02:16:26;;;;;;;;;0.50;0.50;;;;;22.59;57.62;100973.56;5032935;28;45489;-76
2022/08/01 02:18:51;;;;;;;;;1.00;1.00;;;;;22.54;57.55;100972.00;5046129;28;45741;-75
2022/08/01 02:21:29;;;;;;;;;0.75;0.75;;;;;22.57;57.95;100979.03;5053735;28;45496;-75
2022/08/01 02:23:58;;;;;;;;;0.00;0.00;;;;;22.59;57.42;100970.84;5036689;28;45533;-74
2022/08/01 02:26:24;;;;;;;;;0.00;0.00;;;;;22.46;57.53;100960.03;5054910;28;45599;-76
2022/08/01 02:28:56;;;;;;;;;1.25;0.50;;;;;22.52;58.20;100973.09;5052732;28;45591;-76
2022/08/01 02:31:23;;;;;;;;;0.00;0.00;;;;;22.50;57.97;100969.63;5036177;28;47137;-75
2022/08/01 02:34:12;;;;;;;;;0.00;0.00;;;;;22.48;58.40;100977.78;5032753;28;45454;-75
2022/08/01 02:36:38;;;;;;;;;1.25;0.00;;;;;22.45;58.55;100975.28;5034018;28;45398;-74
2022/08/01 02:39:09;;;;;;;;;1.25;0.00;;;;;22.41;58.33;100968.41;5031590;28;45443;-75
2022/08/01 02:41:39;;;;;;;;;0.00;0.00;;;;;22.17;58.33;100942.03;5051114;28;45462;-75
2022/08/01 02:44:09;;;;;;;;;0.00;0.00;;;;;22.41;58.95;100976.47;5043457;28;45626;-77
2022/08/01 02:46:41;;;;;;;;;2.00;2.00;;;;;22.42;59.15;100983.56;5033226;28;45473;-76
2022/08/01 02:49:10;;;;;;;;;2.00;0.75;;;;;22.44;58.96;100970.91;5056325;28;45434;-75
2022/08/01 02:51:36;;;;;;;;;1.00;1.00;;;;;22.45;59.19;100972.59;5074170;27;47054;-77
2022/08/01 02:54:05;;;;;;;;;1.00;1.00;;;;;22.48;58.85;100971.56;5066040;28;45464;-77
2022/08/01 02:56:35;;;;;;;;;2.00;0.00;;;;;22.45;58.74;100969.06;5054285;28;45401;-77
2022/08/01 02:59:05;;;;;;;;;0.00;0.00;;;;;22.33;58.76;100943.78;5068187;27;45715;-75
2022/08/01 03:01:34;;;;;;;;;0.00;0.00;;;;;22.52;59.04;100973.94;5065248;27;45495;-75
2022/08/01 03:03:59;;;;;;;;;2.00;1.25;;;;;22.48;58.61;100967.00;5054390;28;45480;-76
2022/08/01 03:06:26;;;;;;;;;1.00;1.00;;;;;22.52;58.84;100967.72;5055263;28;45442;-75
2022/08/01 03:08:53;;;;;;;;;0.00;0.00;;;;;22.39;58.93;100948.75;5067771;28;45291;-74
2022/08/01 03:11:20;;;;;;;;;0.00;0.00;;;;;22.46;58.87;100955.50;5080015;27;45319;-74
2022/08/01 03:13:48;;;;;;;;;1.50;0.75;;;;;22.41;58.47;100954.94;5067846;28;45515;-75
2022/08/01 03:16:15;;;;;;;;;1.75;1.75;;;;;22.59;58.96;100970.84;5053918;28;45437;-75
2022/08/01 03:18:44;;;;;;;;;1.50;1.50;;;;;22.53;58.78;100958.66;5055409;28;45433;-75
2022/08/01 03:21:13;;;;;;;;;2.00;2.00;;;;;22.60;58.79;100964.50;5054121;27;45379;-77
2022/08/01 03:23:41;;;;;;;;;1.00;1.00;;;;;22.68;58.73;100975.66;5054158;28;45467;-78
2022/08/01 03:26:07;;;;;;;;;1.00;0.00;;;;;22.71;58.76;100978.16;5054778;28;45551;-77
2022/08/01 03:28:38;;;;;;;;;1.00;1.00;;;;;22.64;58.42;100966.91;5062718;28;45531;-73
2022/08/01 03:31:04;;;;;;;;;1.00;1.00;;;;;22.60;58.59;100962.69;5068561;28;46749;-75
2022/08/01 03:33:30;;;;;;;;;4.50;2.00;;;;;22.69;58.72;100974.69;5054429;28;45374;-75
2022/08/01 03:35:55;;;;;;;;;1.00;1.00;;;;;22.71;58.67;100981.72;5054633;28;45607;-75
2022/08/01 03:38:26;;;;;;;;;2.00;2.00;;;;;22.71;58.59;100975.44;5065119;27;45593;-75
2022/08/01 03:40:58;;;;;;;;;1.00;1.00;;;;;22.70;58.77;100974.59;5063709;28;46111;-78
2022/08/01 03:43:41;;;;;;;;;1.50;1.25;;;;;22.70;58.95;100979.13;5074321;28;45436;-76
2022/08/01 03:46:11;;;;;;;;;1.50;0.00;;;;;22.63;58.93;100978.63;5075177;28;45431;-75
2022/08/01 03:48:42;;;;;;;;;0.00;0.00;;;;;22.62;59.26;100981.44;5076999;28;45519;-77
2022/08/01 03:51:09;;;;;;;;;1.00;1.00;;;;;22.51;59.39;100965.97;5072711;27;45520;-76
2022/08/01 03:53:37;;;;;;;;;1.00;1.00;;;;;22.56;59.28;100968.38;5070813;28;45320;-77
2022/08/01 03:56:05;;;;;;;;;2.00;1.00;;;;;22.49;59.83;100955.28;5057034;28;45546;-76
2022/08/01 03:58:31;;;;;;;;;1.00;1.00;;;;;22.56;59.25;100965.66;5056847;28;45446;-76
2022/08/01 04:00:57;;;;;;;;;1.25;1.25;;;;;22.61;59.45;100975.19;5060889;28;46217;-76
2022/08/01 04:03:25;;;;;;;;;2.00;2.00;;;;;22.57;59.39;100962.03;5064620;27;45418;-77
2022/08/01 04:05:50;;;;;;;;;1.25;1.25;;;;;22.64;59.59;100979.53;5077598;27;45338;-77
2022/08/01 04:08:17;;;;;;;;;0.25;0.25;;;;;22.60;59.06;100969.91;5077452;27;45307;-77
2022/08/01 04:10:42;;;;;;;;;0.75;0.75;;;;;22.59;59.52;100976.25;5064405;28;46260;-77
2022/08/01 04:13:08;;;;;;;;;1.00;1.00;;;;;22.57;59.16;100967.41;5058340;28;45412;-76
2022/08/01 04:15:34;;;;;;;;;1.25;1.25;;;;;22.54;58.82;100958.53;5057650;28;45393;-76
2022/08/01 04:17:59;;;;;;;;;2.00;1.00;;;;;22.58;58.74;100963.72;5058290;28;45550;-76
2022/08/01 04:20:25;;;;;;;;;0.00;0.00;;;;;22.58;58.62;100963.72;5066118;28;45415;-75
2022/08/01 04:22:50;;;;;;;;;0.00;0.00;;;;;22.54;58.83;100958.53;5058224;28;45548;-77
2022/08/01 04:25:21;;;;;;;;;0.75;0.75;;;;;22.59;58.85;100962.78;5057394;28;45419;-77
2022/08/01 04:27:51;;;;;;;;;0.50;0.50;;;;;22.57;58.99;100962.03;5069868;27;45334;-76
2022/08/01 04:30:31;;;;;;;;;1.25;1.25;;;;;22.57;58.91;100956.63;5057720;28;46159;-77
2022/08/01 04:33:00;;;;;;;;;0.50;0.50;;;;;22.37;59.04;100920.22;5057363;28;45345;-77
2022/08/01 04:35:27;;;;;;;;;2.00;1.25;;;;;22.60;58.92;100951.06;5057716;28;45348;-77
2022/08/01 04:37:53;;;;;;;;;0.00;0.00;;;;;22.60;59.32;100956.44;5058278;28;45513;-77
2022/08/01 04:40:21;;;;;;;;;2.00;1.00;;;;;22.50;59.29;100946.25;5068199;27;45504;-75
2022/08/01 04:42:48;;;;;;;;;1.75;1.75;;;;;22.56;59.35;100960.28;5057492;28;45553;-76
2022/08/01 04:45:14;;;;;;;;;0.75;0.75;;;;;22.54;59.20;100958.53;5055999;28;45525;-77
2022/08/01 04:47:41;;;;;;;;;3.00;1.00;;;;;22.52;59.68;100963.19;5057087;28;45476;-76
2022/08/01 04:50:07;;;;;;;;;1.75;1.00;;;;;22.44;59.33;100957.44;5058798;28;46043;-77
2022/08/01 04:52:35;;;;;;;;;2.50;2.50;;;;;22.50;59.58;100962.41;5077348;27;45420;-76
2022/08/01 04:55:01;;;;;;;;;0.75;0.75;;;;;22.50;59.92;100967.81;5076707;28;45354;-77
2022/08/01 04:57:27;;;;;;;;;1.00;1.00;;;;;22.50;59.62;100965.13;5077490;28;45635;-77
2022/08/01 04:59:56;;;;;;;;;1.00;1.00;;;;;22.42;59.74;100948.56;5070857;28;46070;-76
2022/08/01 05:02:22;;;;;;;;;1.25;1.25;;;;;22.47;59.97;100973.38;5057070;28;45480;-76
2022/08/01 05:04:47;;;;;;;;;1.00;1.00;;;;;22.51;60.10;100974.91;5056864;28;45394;-76
2022/08/01 05:07:13;;;;;;;;;2.00;2.00;;;;;22.55;60.01;100975.59;5056934;28;45366;-76
2022/08/01 05:09:45;;;;;;;;;1.00;1.00;;;;;22.60;60.14;100977.97;5055731;28;45456;-76
2022/08/01 05:12:11;;;;;;;;;0.50;0.50;;;;;22.55;59.90;100986.34;5057140;28;45410;-74
2022/08/01 05:14:43;;;;;;;;;2.00;2.00;;;;;22.43;60.13;100960.22;5057411;28;45467;-74
2022/08/01 05:17:09;;;;;;;;;0.00;0.00;;;;;22.44;59.78;100973.59;5068400;27;45570;-76
2022/08/01 05:19:36;;;;;;;;;2.75;1.00;;;;;22.53;60.10;100988.25;5074968;27;46502;-75
2022/08/01 05:22:04;;;;;;;;;0.75;0.50;;;;;22.47;60.07;100978.78;5058314;28;45576;-77
2022/08/01 05:24:34;;;;;;;;;1.50;1.50;;;;;22.57;59.51;100983.56;5057391;28;45375;-76
2022/08/01 05:27:00;;;;;;;;;1.00;1.00;;;;;22.57;59.98;100988.97;5057024;28;45390;-77
2022/08/01 05:29:26;;;;;;;;;1.50;0.75;;;;;22.66;59.87;100989.22;5057033;28;45487;-76
2022/08/01 05:31:53;;;;;;;;;1.00;1.00;;;;;22.68;59.76;100990.00;5068371;28;45482;-77
2022/08/01 05:34:19;;;;;;;;;2.00;1.00;;;;;22.70;59.48;100989.91;5076388;27;45335;-76
2022/08/01 05:36:45;;;;;;;;;2.75;2.00;;;;;22.68;59.39;100992.69;5076945;27;45591;-77
2022/08/01 05:39:11;;;;;;;;;0.50;0.50;;;;;22.73;58.95;100980.72;5075961;28;45397;-77
2022/08/01 05:41:36;;;;;;;;;1.75;1.25;;;;;22.78;59.22;100990.25;5074408;28;45495;-76
2022/08/01 05:44:03;;;;;;;;;1.00;1.00;;;;;22.80;59.32;100992.84;5068087;27;45788;-76
2022/08/01 05:46:30;;;;;;;;;1.00;1.00;;;;;22.80;59.30;100988.31;5077559;27;45397;-76
2022/08/01 05:48:59;;;;;;;;;0.00;0.00;;;;;22.88;58.81;100994.09;5079102;27;46240;-79
2022/08/01 05:51:25;;;;;;;;;0.00;0.00;;;;;22.93;59.20;100998.28;5066982;27;45501;-76
2022/08/01 05:53:51;;;;;;;;;1.50;1.00;;;;;22.95;59.05;101007.16;5059049;28;45213;-76
2022/08/01 05:56:16;;;;;;;;;1.00;1.00;;;;;22.95;58.68;100999.06;5062438;28;45387;-74
2022/08/01 05:58:42;;;;;;;;;2.00;2.00;;;;;22.97;58.69;101006.09;5059468;28;45465;-75
2022/08/01 06:01:07;;;;;;;;;0.50;0.50;;;;;22.94;58.33;100997.34;5063284;27;45326;-76
2022/08/01 06:03:33;;;;;;;;;0.75;0.75;;;;;22.95;58.10;101009.84;5058456;28;45421;-75
2022/08/01 06:05:59;;;;;;;;;1.50;1.50;;;;;22.88;58.09;101009.38;5075920;27;45439;-75
2022/08/01 06:08:25;;;;;;;;;0.50;0.50;;;;;22.84;58.27;101006.03;5076211;27;45484;-76
2022/08/01 06:10:50;;;;;;;;;2.00;1.00;;;;;22.79;58.27;101004.59;5073515;28;45474;-74
2022/08/01 06:13:17;;;;;;;;;1.50;0.50;;;;;22.81;58.34;101006.22;5076857;28;45769;-76
2022/08/01 06:15:42;;;;;;;;;1.00;1.00;;;;;22.57;57.93;100972.78;5073910;27;45556;-76
2022/08/01 06:18:08;;;;;;;;;1.00;1.00;;;;;22.78;57.79;101003.72;5076314;27;45742;-76
2022/08/01 06:20:33;;;;;;;;;2.00;1.25;;;;;22.77;58.49;101004.69;5068946;27;45551;-77
2022/08/01 06:22:58;;;;;;;;;1.00;1.00;;;;;22.65;58.38;100975.84;5075189;27;45450;-78
2022/08/01 06:25:24;;;;;;;;;0.00;0.00;;;;;22.77;58.68;100996.59;5075861;28;45580;-76
2022/08/01 06:27:49;;;;;;;;;1.00;1.00;;;;;22.81;58.43;100992.75;5076742;28;45916;-76
2022/08/01 06:30:15;;;;;;;;;1.50;1.50;;;;;22.85;57.42;100996.09;5073410;27;45391;-76
2022/08/01 06:32:41;;;;;;;;;1.00;1.00;;;;;22.96;57.65;101011.59;5075187;27;45484;-77
2022/08/01 06:35:08;;;;;;;;;2.00;1.75;;;;;22.96;57.63;101000.81;5077084;27;45533;-78
2022/08/01 06:37:34;;;;;;;;;0.00;0.00;;;;;23.08;57.93;101005.41;5062348;27;48259;-77
2022/08/01 06:40:08;;;;;;;;;1.25;1.25;;;;;23.14;57.05;101012.22;5056212;27;45773;-78
2022/08/01 06:42:37;;;;;;;;;1.00;1.00;;;;;22.95;57.01;100969.44;5064091;28;45464;-77
2022/08/01 06:45:08;;;;;;;;;1.00;1.00;;;;;23.22;56.56;101005.38;5062233;27;45468;-80
2022/08/01 06:47:34;;;;;;;;;0.75;0.75;;;;;23.26;57.37;101013.25;5066231;28;46139;-77
2022/08/01 06:50:00;;;;;;;;;2.00;2.00;;;;;23.18;56.87;100997.59;5057866;28;45540;-77
2022/08/01 06:52:29;;;;;;;;;1.50;1.00;;;;;23.26;56.83;101003.34;5057382;28;45662;-78
2022/08/01 06:54:54;;;;;;;;;1.00;1.00;;;;;23.35;56.84;100993.75;5054856;28;45869;-77
2022/08/01 06:57:21;;;;;;;;;1.00;1.00;;;;;23.50;56.56;101006.19;5064088;28;46137;-78
2022/08/01 06:59:46;;;;;;;;;2.75;1.00;;;;;23.51;56.49;101002.53;5073021;27;45653;-77
2022/08/01 07:02:14;;;;;;;;;1.00;1.00;;;;;23.60;56.01;101004.63;5067040;28;45496;-78
2022/08/01 07:04:40;;;;;;;;;1.00;1.00;;;;;23.58;55.91;100992.22;5060623;28;45631;-78
2022/08/01 07:07:05;;;;;;;;;2.00;2.00;;;;;23.73;55.61;101001.06;5062696;28;46064;-75
2022/08/01 07:09:30;;;;;;;;;1.00;1.00;;;;;23.83;55.34;101002.16;5062483;28;45519;-75
2022/08/01 07:11:56;;;;;;;;;2.25;1.00;;;;;23.92;55.05;101006.97;5055329;28;45528;-78
2022/08/01 07:14:23;;;;;;;;;1.25;1.00;;;;;24.03;54.36;101014.31;5065305;28;45630;-78
2022/08/01 07:16:48;;;;;;;;;2.00;1.00;;;;;24.06;54.37;101013.25;5066476;27;45556;-77
2022/08/01 07:19:14;;;;;;;;;1.00;1.00;;;;;24.16;54.45;101008.94;5064743;27;45737;-76
2022/08/01 07:21:39;;;;;;;;;2.75;1.75;;;;;24.24;54.03;101011.94;5066057;28;45476;-77
2022/08/01 07:24:06;;;;;;;;;1.00;1.00;;;;;24.36;53.60;101014.75;5055250;28;45334;-78
2022/08/01 07:26:32;;;;;;;;;1.00;1.00;;;;;24.47;53.54;101012.13;5064138;28;45761;-75
2022/08/01 07:28:57;;;;;;;;;1.50;1.50;;;;;24.51;53.48;101005.53;5055755;28;45561;-76
2022/08/01 07:31:23;;;;;;;;;2.50;2.50;;;;;24.71;53.67;101008.69;5060994;28;45318;-76
2022/08/01 07:33:49;;;;;;;;;0.25;0.25;;;;;24.75;52.88;101010.16;5060839;28;45552;-77
2022/08/01 07:36:16;;;;;;;;;2.00;2.00;;;;;24.80;52.96;101008.00;5070757;28;46266;-77
2022/08/01 07:38:41;;;;;;;;;2.25;1.25;;;;;24.77;52.60;101013.63;5059486;28;45556;-76
2022/08/01 07:41:07;;;;;;;;;1.00;1.00;;;;;24.76;52.52;101020.84;5064693;28;45488;-76
2022/08/01 07:43:32;;;;;;;;;1.00;1.00;;;;;24.72;52.80;101023.91;5065036;28;45504;-76
2022/08/01 07:45:57;;;;;;;;;1.00;1.00;;;;;24.64;52.64;101017.22;5062200;27;45737;-76
2022/08/01 07:48:24;;;;;;;;;3.75;3.00;;;;;24.68;52.57;101030.50;5064009;28;45499;-77
2022/08/01 07:50:50;;;;;;;;;1.75;1.75;;;;;24.64;52.53;101033.44;5069013;28;45405;-77
2022/08/01 07:53:16;;;;;;;;;2.25;2.25;;;;;24.53;52.51;101024.34;5056874;27;45559;-77
2022/08/01 07:55:41;;;;;;;;;2.25;2.25;;;;;24.54;52.72;101039.59;5060721;28;46137;-78
2022/08/01 07:58:07;;;;;;;;;3.00;3.00;;;;;24.45;52.78;101041.09;5055745;28;45567;-80
2022/08/01 08:00:32;;;;;;;;;2.50;2.00;;;;;24.19;53.08;101011.41;5063914;27;45475;-80
2022/08/01 08:02:59;;;;;;;;;5.00;3.00;;;;;24.39;53.44;101044.25;5056151;28;45347;-74
2022/08/01 08:05:25;;;;;;;;;2.00;2.00;;;;;24.42;53.53;101030.53;5065697;28;45463;-79
2022/08/01 08:07:50;;;;;;;;;3.25;3.00;;;;;24.30;52.79;101016.91;5062898;27;45525;-79
2022/08/01 08:10:16;;;;;;;;;2.75;1.25;;;;;24.52;53.09;101045.09;5058078;27;45452;-80
2022/08/01 08:12:41;;;;;;;;;6.00;5.25;;;;;24.57;52.83;101042.91;5059077;28;45509;-80
2022/08/01 08:15:07;;;;;;;;;6.25;4.75;;;;;24.63;52.61;101045.22;5065092;28;46309;-77
2022/08/01 08:17:33;;;;;;;;;10.25;7.75;;;;;24.72;52.16;101042.81;5078393;28;45790;-79
2022/08/01 08:19:59;;;;;;;;;5.25;2.75;;;;;24.80;52.15;101043.13;5062876;28;45433;-80
2022/08/01 08:22:24;;;;;;;;;2.75;2.25;;;;;24.91;52.20;101036.94;5058271;28;45378;-79
2022/08/01 08:24:49;;;;;;;;;2.25;2.25;;;;;24.94;51.77;101028.59;5059816;28;46219;-79
2022/08/01 08:27:15;;;;;;;;;3.50;3.25;;;;;25.21;51.09;101041.91;5065762;28;45555;-80
2022/08/01 08:29:41;;;;;;;;;5.00;2.75;;;;;24.96;50.48;100986.97;5070979;28;45367;-80
2022/08/01 08:32:07;;;;;;;;;2.50;2.50;;;;;25.38;50.56;101023.59;5055014;28;45537;-79
2022/08/01 08:34:33;;;;;;;;;3.75;3.50;;;;;25.06;49.94;100960.09;5062075;28;46366;-79
2022/08/01 08:36:59;;;;;;;;;3.25;3.00;;;;;25.48;49.75;101049.84;5065278;28;45384;-79
2022/08/01 08:39:26;;;;;;;;;4.00;4.00;;;;;25.38;50.13;101034.41;5082475;28;45537;-79
2022/08/01 08:41:52;;;;;;;;;2.25;2.25;;;;;25.53;50.11;101017.88;5077389;27;45492;-79
2022/08/01 08:44:19;;;;;;;;;4.25;3.00;;;;;25.78;50.29;101021.44;5066042;27;46167;-80
2022/08/01 08:46:51;;;;;;;;;3.00;3.00;;;;;26.17;48.62;101021.16;5070778;28;45421;-79
2022/08/01 08:49:20;;;;;;;;;2.00;2.00;;;;;26.45;47.98;101016.25;5071608;27;45521;-79
2022/08/01 08:51:49;;;;;;;;;3.25;3.00;;;;;26.88;46.84;101010.09;5079442;28;45607;-82
2022/08/01 08:54:16;;;;;;;;;1.75;1.75;;;;;27.39;45.68;101005.88;5078928;27;45651;-79
2022/08/01 08:56:43;;;;;;;;;1.75;1.75;;;;;28.11;43.39;100999.72;5074655;28;45425;-81
2022/08/01 08:59:11;;;;;;;;;5.50;3.50;;;;;29.17;42.51;101004.81;5056128;28;45472;-78
2022/08/01 09:01:36;;;;;;;;;2.25;2.25;;;;;29.48;40.22;101002.84;5061948;28;45602;-78
2022/08/01 09:04:05;;;;;;;;;2.00;2.00;;;;;29.50;40.51;100984.50;5070145;27;45642;-78
2022/08/01 09:06:32;;;;;;;;;2.00;2.00;;;;;29.42;39.93;100995.25;5069509;28;45520;-78
2022/08/01 09:08:58;;;;;;;;;1.75;1.75;;;;;29.20;40.35;100999.09;5058357;28;45387;-78
2022/08/01 09:11:24;;;;;;;;;2.00;2.00;;;;;29.13;40.33;101006.94;5056883;27;45645;-77
2022/08/01 09:14:03;;;;;;;;;2.25;2.25;;;;;29.16;41.42;101012.09;5060930;28;45555;-80
2022/08/01 09:16:30;;;;;;;;;0.75;0.75;;;;;29.12;40.16;101010.66;5063636;28;45480;-79
2022/08/01 09:19:08;;;;;;;;;1.00;1.00;;;;;28.90;40.34;100990.03;5062980;28;45569;-80
2022/08/01 09:21:33;;;;;;;;;1.00;1.00;;;;;28.84;40.31;101013.19;5060889;27;45416;-80
2022/08/01 09:24:02;;;;;;;;;2.00;0.75;;;;;28.77;40.76;101027.47;5063693;28;46125;-80
2022/08/01 09:26:31;;;;;;;;;1.00;1.00;;;;;28.41;41.02;101027.91;5056480;28;45486;-80
2022/08/01 09:28:58;;;;;;;;;2.25;2.25;;;;;28.09;41.20;101034.31;5066042;28;45391;-79
2022/08/01 09:31:27;;;;;;;;;1.75;1.75;;;;;27.81;42.42;101023.06;5063795;28;45460;-80
2022/08/01 09:34:03;;;;;;;;;2.00;2.00;;;;;27.72;42.23;101037.44;5068390;27;45440;-78
2022/08/01 09:36:44;;;;;;;;;2.00;2.00;;;;;27.56;43.10;101032.47;5065110;28;45694;-80
2022/08/01 09:39:14;;;;;;;;;4.00;2.50;;;;;27.44;43.38;101020.78;5064013;28;45413;-81
2022/08/01 09:41:39;;;;;;;;;3.50;2.00;;;;;27.17;43.37;101007.66;5060972;28;45476;-79
2022/08/01 09:44:05;;;;;;;;;3.00;2.00;;;;;27.15;44.07;101014.19;5070085;28;45691;-80
2022/08/01 09:46:32;;;;;;;;;3.50;1.50;;;;;26.99;44.14;101023.59;5060890;28;45559;-78
2022/08/01 09:49:04;;;;;;;;;3.75;1.50;;;;;26.81;44.57;101025.13;5060401;28;45491;-79
2022/08/01 09:51:39;;;;;;;;;2.00;2.00;;;;;26.69;45.05;101033.28;5060463;27;45670;-77
2022/08/01 09:54:06;;;;;;;;;1.75;1.75;;;;;26.36;45.28;100998.91;5067195;27;47251;-78
2022/08/01 09:56:42;;;;;;;;;2.00;2.00;;;;;26.49;45.75;101036.69;5066350;27;45550;-78
2022/08/01 09:59:09;;;;;;;;;1.00;1.00;;;;;26.55;45.21;101034.34;5064828;27;45620;-78
2022/08/01 10:01:49;;;;;;;;;2.50;2.50;;;;;26.80;45.57;101028.81;5062892;27;45572;-78
2022/08/01 10:04:20;;;;;;;;;2.00;2.00;;;;;27.04;44.60;101021.41;5055723;28;45463;-76
2022/08/01 10:06:53;;;;;;;;;2.25;2.25;;;;;27.40;44.15;101013.88;5063553;28;45492;-76
2022/08/01 10:09:36;;;;;;;;;4.50;3.00;;;;;27.97;43.72;101029.94;5068725;27;45579;-77
2022/08/01 10:12:03;;;;;;;;;2.50;2.50;;;;;28.28;43.05;101038.13;5065589;28;45476;-76
2022/08/01 10:14:30;;;;;;;;;2.75;2.75;;;;;28.26;42.59;101037.41;5057669;28;45611;-77
2022/08/01 10:16:59;;;;;;;;;2.25;2.25;;;;;28.54;41.20;101012.22;5067271;28;45379;-77
2022/08/01 10:19:27;;;;;;;;;2.00;2.00;;;;;29.18;40.90;101031.88;5054895;28;45730;-77
2022/08/01 10:21:53;;;;;;;;;5.00;5.00;;;;;29.74;39.79;101024.03;5060167;28;45520;-76
2022/08/01 10:24:23;;;;;;;;;2.25;2.25;;;;;30.08;38.85;101026.31;5065331;28;47343;-77
2022/08/01 10:26:52;;;;;;;;;2.00;2.00;;;;;30.20;38.51;101027.84;5062131;28;45809;-78
2022/08/01 10:29:20;;;;;;;;;2.00;2.00;;;;;30.07;38.40;101032.75;5061206;28;45429;-77
2022/08/01 10:31:48;;;;;;;;;4.00;4.00;;;;;30.18;39.19;101040.75;5059498;27;45670;-78
2022/08/01 10:34:17;;;;;;;;;2.25;2.00;;;;;30.27;38.68;101028.94;5064301;28;45361;-77
2022/08/01 10:36:43;;;;;;;;;1.75;1.75;;;;;30.60;38.12;101017.69;5058284;27;45476;-77
2022/08/01 10:39:13;;;;;;;;;2.00;2.00;;;;;30.98;38.05;101019.34;5061368;28;45935;-78
2022/08/01 10:41:40;;;;;;;;;2.00;2.00;;;;;30.98;37.26;101016.63;5066288;27;45667;-77
2022/08/01 10:44:09;;;;;;;;;2.25;2.25;;;;;30.97;36.52;101014.88;5062228;28;45461;-76
2022/08/01 10:46:39;;;;;;;;;4.00;2.50;;;;;30.85;36.78;101016.09;5065813;28;45462;-76
2022/08/01 10:49:09;;;;;;;;;3.50;3.00;;;;;30.75;36.93;101018.03;5062025;28;45442;-76
2022/08/01 10:51:38;;;;;;;;;4.00;4.00;;;;;30.45;38.19;101026.34;5066693;28;45476;-76
2022/08/01 10:54:09;;;;;;;;;4.50;4.00;;;;;30.20;37.42;101027.84;5058413;28;46152;-81
2022/08/01 10:56:47;;;;;;;;;3.25;3.25;;;;;29.94;38.90;101022.16;5061846;28;45548;-80
2022/08/01 10:59:27;;;;;;;;;4.00;4.00;;;;;29.63;39.30;101010.59;5067291;28;45736;-80
2022/08/01 11:02:04;;;;;;;;;3.50;3.50;;;;;29.35;39.84;100978.66;5056506;28;45489;-81
2022/08/01 11:04:32;;;;;;;;;3.00;3.00;;;;;29.66;40.50;101023.91;5064172;27;45478;-76
2022/08/01 11:07:06;;;;;;;;;5.00;4.00;;;;;29.83;38.72;101020.47;5063104;28;45404;-75
2022/08/01 11:09:43;;;;;;;;;3.50;3.50;;;;;30.08;39.05;101020.88;5066407;28;45555;-79
2022/08/01 11:12:11;;;;;;;;;2.50;2.50;;;;;30.08;38.51;101019.00;5079752;27;45599;-78
2022/08/01 11:15:00;;;;;;;;;6.25;6.25;;;;;30.33;38.76;101013.03;5064018;28;46110;-80
2022/08/01 11:17:47;;;;;;;;;4.50;4.00;;;;;30.32;38.13;101019.47;5064914;27;45406;-78
2022/08/01 11:20:19;;;;;;;;;2.50;2.50;;;;;30.44;38.18;101012.88;5071266;28;45550;-78
2022/08/01 11:22:57;;;;;;;;;4.50;4.00;;;;;30.47;37.42;101021.63;5061791;28;45554;-75
2022/08/01 11:25:23;;;;;;;;;4.75;4.00;;;;;30.41;37.50;101014.03;5061022;28;45460;-77
2022/08/01 11:27:48;;;;;;;;;4.00;4.00;;;;;30.34;38.55;101017.44;5059887;28;45557;-76
2022/08/01 11:30:13;;;;;;;;;5.00;5.00;;;;;30.49;37.31;101021.47;5062959;27;45426;-78
2022/08/01 11:32:47;;;;;;;;;2.50;2.50;;;;;30.82;37.34;101019.13;5061873;28;45521;-77